createdAt,value
2018-02-16T00:00:19.256Z,99698.00
2018-02-16T00:02:47.133Z,99695.63
2018-02-16T00:05:14.754Z,99703.22
2018-02-16T00:07:42.382Z,99715.09
2018-02-16T00:10:09.942Z,99716.94
2018-02-16T00:12:37.742Z,99719.87
2018-02-16T00:15:05.415Z,99729.84
2018-02-16T00:17:32.969Z,99731.41
2018-02-16T00:20:00.975Z,99744.78
2018-02-16T00:22:28.554Z,99748.01
2018-02-16T00:24:56.176Z,99753.79
2018-02-16T00:27:23.775Z,99748.51
2018-02-16T00:29:51.358Z,99748.05
2018-02-16T00:32:18.886Z,99751.15
2018-02-16T00:34:46.463Z,99765.03
2018-02-16T00:37:14.038Z,99768.71
2018-02-16T00:39:41.911Z,99769.22
2018-02-16T00:42:09.469Z,99783.99
2018-02-16T00:44:36.998Z,99784.44
2018-02-16T00:47:04.547Z,99781.53
2018-02-16T00:49:32.105Z,99781.91
2018-02-16T00:51:59.650Z,99783.76
2018-02-16T00:54:27.228Z,99791.02
2018-02-16T00:56:54.916Z,99773.73
2018-02-16T00:59:22.709Z,99767.16
2018-02-16T01:01:50.315Z,99772.66
2018-02-16T01:04:17.908Z,99775.77
2018-02-16T01:06:45.514Z,99773.70
2018-02-16T01:09:13.072Z,99774.38
2018-02-16T01:11:40.649Z,99775.47
2018-02-16T01:14:08.181Z,99768.05
2018-02-16T01:16:35.699Z,99759.08
2018-02-16T01:19:03.281Z,99769.05
2018-02-16T01:21:30.982Z,99780.91
2018-02-16T01:23:58.533Z,99776.64
2018-02-16T01:26:26.060Z,99770.94
2018-02-16T01:28:56.811Z,99778.73
2018-02-16T01:31:24.900Z,99789.95
2018-02-16T01:33:52.612Z,99778.39
2018-02-16T01:36:20.443Z,99763.13
2018-02-16T01:38:48.054Z,99776.30
2018-02-16T01:41:15.704Z,99777.09
2018-02-16T01:43:43.353Z,99792.03
2018-02-16T01:46:11.023Z,99793.38
2018-02-16T01:48:38.579Z,99794.30
2018-02-16T01:51:06.130Z,99800.70
2018-02-16T01:53:33.658Z,99795.50
2018-02-16T01:56:01.216Z,99795.68
2018-02-16T01:58:28.762Z,99803.47
2018-02-16T02:00:56.310Z,99808.38
2018-02-16T02:03:23.937Z,99829.59
2018-02-16T02:05:51.600Z,99813.41
2018-02-16T02:08:19.122Z,99825.95
2018-02-16T02:10:46.697Z,99822.62
2018-02-16T02:13:14.555Z,99811.31
2018-02-16T02:15:42.102Z,99830.55
2018-02-16T02:18:09.879Z,99835.83
2018-02-16T02:20:37.834Z,99837.44
2018-02-16T02:23:05.803Z,99838.36
2018-02-16T02:25:35.639Z,99822.80
2018-02-16T02:28:06.064Z,99843.32
2018-02-16T02:30:33.891Z,99853.98
2018-02-16T02:33:01.673Z,99851.38
2018-02-16T02:35:29.249Z,99847.56
2018-02-16T02:37:56.830Z,99847.52
2018-02-16T02:40:24.352Z,99852.95
2018-02-16T02:42:51.957Z,99845.53
2018-02-16T02:45:19.538Z,99851.56
2018-02-16T02:47:47.086Z,99851.41
2018-02-16T02:50:14.641Z,99856.81
2018-02-16T02:52:42.190Z,99866.28
2018-02-16T02:55:09.783Z,99858.84
2018-02-16T02:57:37.318Z,99862.54
2018-02-16T03:00:04.946Z,99863.84
2018-02-16T03:02:32.531Z,99879.63
2018-02-16T03:05:00.098Z,99872.67
2018-02-16T03:07:27.674Z,99867.66
2018-02-16T03:09:55.276Z,99868.36
2018-02-16T03:12:22.831Z,99876.11
2018-02-16T03:14:50.353Z,99882.19
2018-02-16T03:17:18.762Z,99870.49
2018-02-16T03:19:46.791Z,99872.94
2018-02-16T03:22:14.949Z,99870.11
2018-02-16T03:24:42.918Z,99876.27
2018-02-16T03:27:11.154Z,99871.83
2018-02-16T03:29:38.854Z,99872.63
2018-02-16T03:32:06.897Z,99877.09
2018-02-16T03:34:34.751Z,99899.42
2018-02-16T03:37:02.501Z,99897.97
2018-02-16T03:39:30.233Z,99907.91
2018-02-16T03:41:58.089Z,99907.06
2018-02-16T03:44:25.661Z,99905.50
2018-02-16T03:46:53.383Z,99903.02
2018-02-16T03:49:21.243Z,99900.00
2018-02-16T03:51:49.057Z,99912.77
2018-02-16T03:54:17.070Z,99925.63
2018-02-16T03:56:44.680Z,99925.78
2018-02-16T03:59:12.522Z,99928.22
2018-02-16T04:01:40.403Z,99930.08
2018-02-16T04:04:08.331Z,99934.64
2018-02-16T04:06:36.180Z,99938.58
2018-02-16T04:09:05.161Z,99955.36
2018-02-16T04:11:32.894Z,99954.45
2018-02-16T04:14:00.556Z,99964.80
2018-02-16T04:16:28.135Z,99977.03
2018-02-16T04:18:55.667Z,99967.65
2018-02-16T04:21:23.218Z,99962.73
2018-02-16T04:23:50.757Z,99972.14
2018-02-16T04:26:18.349Z,99977.48
2018-02-16T04:28:45.906Z,99978.33
2018-02-16T04:31:13.471Z,99982.68
2018-02-16T04:33:41.054Z,99980.01
2018-02-16T04:36:08.606Z,99986.23
2018-02-16T04:38:36.181Z,99986.83
2018-02-16T04:41:03.711Z,99990.86
2018-02-16T04:43:31.266Z,100005.40
2018-02-16T04:45:58.826Z,100005.96
2018-02-16T04:48:26.419Z,100002.45
2018-02-16T04:50:54.071Z,100003.08
2018-02-16T04:53:21.677Z,100003.14
2018-02-16T04:55:49.286Z,100012.31
2018-02-16T04:58:16.826Z,100014.69
2018-02-16T05:00:44.678Z,100011.34
2018-02-16T05:03:12.206Z,100010.53
2018-02-16T05:05:40.006Z,100012.25
2018-02-16T05:08:07.696Z,100005.47
2018-02-16T05:10:35.483Z,100007.09
2018-02-16T05:13:03.019Z,100019.10
2018-02-16T05:15:30.593Z,100023.39
2018-02-16T05:17:58.152Z,100011.77
2018-02-16T05:20:25.697Z,100011.67
2018-02-16T05:22:53.274Z,100017.44
2018-02-16T05:25:20.828Z,100021.60
2018-02-16T05:27:48.430Z,100018.25
2018-02-16T05:30:15.959Z,100028.52
2018-02-16T05:32:43.559Z,100034.55
2018-02-16T05:35:11.140Z,100035.33
2018-02-16T05:37:38.669Z,100043.48
2018-02-16T05:40:06.259Z,100040.89
2018-02-16T05:42:33.843Z,100041.44
2018-02-16T05:45:01.390Z,100044.13
2018-02-16T05:47:28.920Z,100051.31
2018-02-16T05:49:56.478Z,100049.04
2018-02-16T05:52:24.043Z,100054.85
2018-02-16T05:54:51.629Z,100059.53
2018-02-16T05:57:19.176Z,100058.14
2018-02-16T05:59:46.710Z,100066.44
2018-02-16T06:02:14.292Z,100060.27
2018-02-16T06:04:41.840Z,100064.22
2018-02-16T06:07:09.513Z,100073.12
2018-02-16T06:09:37.195Z,100086.66
2018-02-16T06:12:05.150Z,100093.23
2018-02-16T06:14:32.700Z,100099.08
2018-02-16T06:17:00.276Z,100106.36
2018-02-16T06:19:27.831Z,100100.88
2018-02-16T06:21:55.447Z,100113.38
2018-02-16T06:24:22.979Z,100110.30
2018-02-16T06:26:50.575Z,100112.48
2018-02-16T06:29:18.115Z,100109.09
2018-02-16T06:31:45.661Z,100114.36
2018-02-16T06:34:13.319Z,100124.77
2018-02-16T06:36:40.961Z,100128.73
2018-02-16T06:39:08.550Z,100131.43
2018-02-16T06:41:36.272Z,100129.30
2018-02-16T06:44:03.874Z,100130.62
2018-02-16T06:46:31.770Z,100132.08
2018-02-16T06:48:59.676Z,100141.66
2018-02-16T06:51:27.430Z,100146.42
2018-02-16T06:53:55.183Z,100149.42
2018-02-16T06:56:22.812Z,100147.77
2018-02-16T06:58:50.866Z,100155.97
2018-02-16T07:01:18.907Z,100153.11
2018-02-16T07:03:46.950Z,100148.61
2018-02-16T07:06:14.622Z,100159.72
2018-02-16T07:08:42.247Z,100152.97
2018-02-16T07:11:09.899Z,100154.47
2018-02-16T07:13:37.495Z,100168.64
2018-02-16T07:16:05.331Z,100166.16
2018-02-16T07:18:32.975Z,100177.00
2018-02-16T07:21:00.558Z,100169.65
2018-02-16T07:23:28.111Z,100180.47
2018-02-16T07:25:55.663Z,100181.58
2018-02-16T07:28:23.191Z,100196.23
2018-02-16T07:30:50.745Z,100206.73
2018-02-16T07:33:18.288Z,100198.83
2018-02-16T07:35:45.845Z,100198.17
2018-02-16T07:38:13.369Z,100204.02
2018-02-16T07:40:40.926Z,100202.09
2018-02-16T07:43:08.516Z,100213.53
2018-02-16T07:45:36.133Z,100213.63
2018-02-16T07:48:03.713Z,100221.80
2018-02-16T07:50:31.316Z,100229.49
2018-02-16T07:52:58.864Z,100217.83
2018-02-16T07:55:26.439Z,100237.29
2018-02-16T07:57:53.987Z,100236.06
2018-02-16T08:00:21.613Z,100254.63
2018-02-16T08:02:49.151Z,100248.20
2018-02-16T08:05:17.327Z,100255.82
2018-02-16T08:07:44.920Z,100264.47
2018-02-16T08:10:12.799Z,100259.21
2018-02-16T08:12:40.586Z,100264.05
2018-02-16T08:15:08.883Z,100268.36
2018-02-16T08:17:36.478Z,100266.93
2018-02-16T08:20:04.067Z,100275.44
2018-02-16T08:22:31.733Z,100265.38
2018-02-16T08:24:59.419Z,100282.56
2018-02-16T08:27:27.069Z,100275.20
2018-02-16T08:29:54.923Z,100278.96
2018-02-16T08:32:22.523Z,100278.42
2018-02-16T08:34:50.393Z,100281.73
2018-02-16T08:37:18.158Z,100289.10
2018-02-16T08:39:45.824Z,100286.70
2018-02-16T08:42:16.226Z,100293.91
2018-02-16T08:44:49.904Z,100286.08
2018-02-16T08:47:25.211Z,100293.45
2018-02-16T08:49:58.119Z,100299.17
2018-02-16T08:52:28.842Z,100302.06
2018-02-16T08:55:01.694Z,100301.41
2018-02-16T08:57:29.702Z,100312.80
2018-02-16T08:59:57.252Z,100315.05
2018-02-16T09:02:24.850Z,100313.06
2018-02-16T09:04:52.658Z,100304.67
2018-02-16T09:07:20.304Z,100316.97
2018-02-16T09:09:47.856Z,100317.92
2018-02-16T09:12:15.509Z,100305.34
2018-02-16T09:14:43.383Z,100312.08
2018-02-16T09:17:11.014Z,100314.53
2018-02-16T09:19:38.544Z,100323.64
2018-02-16T09:22:08.391Z,100324.58
2018-02-16T09:24:36.123Z,100325.33
2018-02-16T09:27:05.873Z,100316.85
2018-02-16T09:29:35.623Z,100323.56
2018-02-16T09:32:04.159Z,100316.57
2018-02-16T09:34:31.730Z,100327.80
2018-02-16T09:36:59.730Z,100327.99
2018-02-16T09:39:33.133Z,100345.46
2018-02-16T09:42:01.362Z,100348.42
2018-02-16T09:44:32.538Z,100345.95
2018-02-16T09:47:00.290Z,100364.11
2018-02-16T09:49:30.192Z,100362.05
2018-02-16T09:51:59.522Z,100359.08
2018-02-16T09:54:27.544Z,100354.27
2018-02-16T09:56:58.294Z,100355.23
2018-02-16T09:59:28.304Z,100364.32
2018-02-16T10:01:55.956Z,100362.81
2018-02-16T10:04:25.073Z,100369.50
2018-02-16T10:06:56.025Z,100360.20
2018-02-16T10:09:26.107Z,100365.98
2018-02-16T10:11:57.588Z,100368.63
2018-02-16T10:14:28.161Z,100364.61
2018-02-16T10:16:56.384Z,100370.41
2018-02-16T10:19:24.341Z,100365.31
2018-02-16T10:21:51.948Z,100370.80
2018-02-16T10:24:20.046Z,100378.91
2018-02-16T10:26:48.247Z,100377.79
2018-02-16T10:29:16.480Z,100387.15
2018-02-16T10:31:44.381Z,100385.92
2018-02-16T10:34:12.052Z,100377.41
2018-02-16T10:36:46.035Z,100378.30
2018-02-16T10:39:15.955Z,100378.30
2018-02-16T10:41:46.008Z,100379.80
2018-02-16T10:44:14.308Z,100382.74
2018-02-16T10:46:42.321Z,100390.38
2018-02-16T10:49:14.217Z,100381.02
2018-02-16T10:51:45.024Z,100383.17
2018-02-16T10:54:13.672Z,100386.16
2018-02-16T10:56:41.605Z,100377.72
2018-02-16T10:59:11.187Z,100386.10
2018-02-16T11:01:45.826Z,100383.78
2018-02-16T11:04:19.313Z,100382.91
2018-02-16T11:06:49.866Z,100392.75
2018-02-16T11:09:23.271Z,100379.28
2018-02-16T11:11:52.851Z,100380.84
2018-02-16T11:14:21.118Z,100384.97
2018-02-16T11:16:50.620Z,100383.98
2018-02-16T11:19:18.298Z,100376.95
2018-02-16T11:21:48.678Z,100373.25
2018-02-16T11:24:16.206Z,100375.95
2018-02-16T11:26:43.731Z,100384.16
2018-02-16T11:29:12.233Z,100378.57
2018-02-16T11:31:41.636Z,100380.42
2018-02-16T11:34:13.267Z,100374.31
2018-02-16T11:36:42.769Z,100369.03
2018-02-16T11:39:10.421Z,100367.53
2018-02-16T11:44:23.259Z,100356.05
2018-02-16T11:46:50.998Z,100368.84
2018-02-16T11:49:18.555Z,100356.48
2018-02-16T11:51:47.256Z,100356.81
2018-02-16T11:54:15.007Z,100361.06
2018-02-16T11:56:48.106Z,100362.82
2018-02-16T11:59:17.514Z,100361.90
2018-02-16T12:01:45.045Z,100360.35
2018-02-16T12:04:12.740Z,100367.97
2018-02-16T12:06:42.456Z,100372.53
2018-02-16T12:09:09.969Z,100375.30
2018-02-16T12:11:38.987Z,100369.47
2018-02-16T12:14:08.107Z,100370.11
2018-02-16T12:16:35.698Z,100358.77
2018-02-16T12:19:03.386Z,100364.17
2018-02-16T12:21:31.384Z,100357.59
2018-02-16T12:23:58.912Z,100357.19
2018-02-16T12:26:27.714Z,100369.20
2018-02-16T12:28:56.993Z,100356.45
2018-02-16T12:31:25.190Z,100348.01
2018-02-16T12:33:52.768Z,100348.77
2018-02-16T12:36:20.294Z,100355.23
2018-02-16T12:38:47.900Z,100341.70
2018-02-16T12:41:15.426Z,100346.05
2018-02-16T12:43:42.977Z,100338.39
2018-02-16T12:46:10.534Z,100349.70
2018-02-16T12:48:38.083Z,100339.59
2018-02-16T12:51:05.611Z,100321.90
2018-02-16T12:53:33.156Z,100324.56
2018-02-16T12:56:00.691Z,100329.33
2018-02-16T12:58:28.267Z,100323.85
2018-02-16T13:00:55.819Z,100321.81
2018-02-16T13:03:23.346Z,100311.56
2018-02-16T13:05:50.903Z,100322.50
2018-02-16T13:08:18.423Z,100319.16
2018-02-16T13:10:45.980Z,100321.83
2018-02-16T13:13:13.501Z,100317.42
2018-02-16T13:15:41.054Z,100319.56
2018-02-16T13:18:08.583Z,100312.77
2018-02-16T13:20:36.158Z,100320.50
2018-02-16T13:23:03.690Z,100315.33
2018-02-16T13:25:31.243Z,100315.81
2018-02-16T13:27:58.767Z,100320.16
2018-02-16T13:30:26.344Z,100315.27
2018-02-16T13:32:53.875Z,100329.22
2018-02-16T13:35:21.399Z,100319.81
2018-02-16T13:37:48.953Z,100328.55
2018-02-16T13:40:16.478Z,100318.97
2018-02-16T13:42:44.031Z,100316.00
2018-02-16T13:45:11.558Z,100317.09
2018-02-16T13:47:39.838Z,100320.09
2018-02-16T13:50:07.364Z,100312.57
2018-02-16T13:52:37.314Z,100311.58
2018-02-16T13:55:04.842Z,100300.83
2018-02-16T13:57:32.394Z,100298.64
2018-02-16T13:59:59.918Z,100295.86
2018-02-16T14:02:28.474Z,100292.83
2018-02-16T14:04:56.003Z,100287.91
2018-02-16T14:07:23.525Z,100292.08
2018-02-16T14:09:51.081Z,100276.73
2018-02-16T14:12:18.607Z,100270.01
2018-02-16T14:14:46.154Z,100266.85
2018-02-16T14:17:15.752Z,100262.64
2018-02-16T14:19:43.489Z,100258.55
2018-02-16T14:22:11.014Z,100270.73
2018-02-16T14:24:38.569Z,100269.49
2018-02-16T14:27:06.446Z,100260.55
2018-02-16T14:29:34.101Z,100271.23
2018-02-16T14:32:02.557Z,100272.07
2018-02-16T14:34:30.278Z,100272.03
2018-02-16T14:36:57.859Z,100264.28
2018-02-16T14:39:25.408Z,100255.45
2018-02-16T14:41:53.024Z,100271.96
2018-02-16T14:44:20.611Z,100278.69
2018-02-16T14:46:48.266Z,100268.33
2018-02-16T14:49:15.891Z,100276.41
2018-02-16T14:51:43.447Z,100276.96
2018-02-16T14:54:10.973Z,100289.19
2018-02-16T14:56:38.524Z,100288.45
2018-02-16T14:59:06.129Z,100289.34
2018-02-16T15:01:33.946Z,100296.50
2018-02-16T15:04:02.483Z,100294.86
2018-02-16T15:06:32.248Z,100298.82
2018-02-16T15:09:00.311Z,100296.69
2018-02-16T15:11:27.836Z,100289.11
2018-02-16T15:13:55.392Z,100285.36
2018-02-16T15:16:22.910Z,100281.71
2018-02-16T15:18:50.462Z,100273.98
2018-02-16T15:21:19.849Z,100269.02
2018-02-16T15:23:47.550Z,100276.25
2018-02-16T15:26:15.076Z,100279.81
2018-02-16T15:28:42.631Z,100267.09
2018-02-16T15:31:10.253Z,100276.23
2018-02-16T15:33:37.836Z,100278.13
2018-02-16T15:36:06.555Z,100278.76
2018-02-16T15:38:34.087Z,100284.94
2018-02-16T15:41:01.631Z,100282.62
2018-02-16T15:43:29.168Z,100283.22
2018-02-16T15:45:56.721Z,100286.03
2018-02-16T15:48:24.247Z,100276.73
2018-02-16T15:50:51.844Z,100276.00
2018-02-16T15:53:19.403Z,100278.40
2018-02-16T15:55:47.076Z,100278.50
2018-02-16T15:58:14.608Z,100274.31
2018-02-16T16:00:42.592Z,100277.77
2018-02-16T16:03:10.937Z,100242.31
2018-02-16T16:05:39.063Z,100272.34
2018-02-16T16:08:07.137Z,100268.47
2018-02-16T16:10:37.192Z,100273.70
2018-02-16T16:13:05.168Z,100276.10
2018-02-16T16:15:32.725Z,100277.41
2018-02-16T16:18:00.320Z,100274.30
2018-02-16T16:20:27.850Z,100275.14
2018-02-16T16:22:55.431Z,100275.88
2018-02-16T16:25:22.951Z,100276.02
2018-02-16T16:27:50.507Z,100281.92
2018-02-16T16:30:18.112Z,100279.34
2018-02-16T16:32:45.676Z,100282.31
2018-02-16T16:35:13.238Z,100279.26
2018-02-16T16:37:40.766Z,100280.06
2018-02-16T16:40:08.368Z,100284.67
2018-02-16T16:42:35.903Z,100275.53
2018-02-16T16:45:03.475Z,100288.58
2018-02-16T16:47:30.994Z,100277.66
2018-02-16T16:49:58.577Z,100276.08
2018-02-16T16:52:26.130Z,100274.64
2018-02-16T16:54:53.711Z,100281.80
2018-02-16T16:57:21.235Z,100287.53
2018-02-16T16:59:48.762Z,100294.75
2018-02-16T17:02:20.488Z,100283.14
2018-02-16T17:04:50.237Z,100286.27
2018-02-16T17:07:19.596Z,100277.26
2018-02-16T17:09:48.195Z,100283.81
2018-02-16T17:12:16.866Z,100266.77
2018-02-16T17:14:45.124Z,100276.73
2018-02-16T17:17:12.802Z,100273.67
2018-02-16T17:19:43.475Z,100273.12
2018-02-16T17:22:11.239Z,100273.88
2018-02-16T17:24:41.212Z,100265.33
2018-02-16T17:27:08.856Z,100261.88
2018-02-16T17:29:37.059Z,100261.45
2018-02-16T17:32:04.619Z,100252.86
2018-02-16T17:34:32.415Z,100255.47
2018-02-16T17:37:00.578Z,100270.95
2018-02-16T17:39:28.250Z,100262.19
2018-02-16T17:41:55.776Z,100250.95
2018-02-16T17:44:23.354Z,100257.23
2018-02-16T17:46:50.881Z,100265.02
2018-02-16T17:49:18.831Z,100259.07
2018-02-16T17:51:47.438Z,100257.07
2018-02-16T17:54:19.747Z,100257.44
2018-02-16T17:56:48.153Z,100263.63
2018-02-16T17:59:15.691Z,100264.86
2018-02-16T18:01:43.518Z,100267.39
2018-02-16T18:04:11.173Z,100268.63
2018-02-16T18:06:40.523Z,100261.85
2018-02-16T18:09:08.677Z,100258.38
2018-02-16T18:11:36.454Z,100246.64
2018-02-16T18:14:06.626Z,100244.98
2018-02-16T18:16:36.102Z,100247.36
2018-02-16T18:19:03.746Z,100251.48
2018-02-16T18:21:42.927Z,100246.87
2018-02-16T18:24:13.035Z,100244.39
2018-02-16T18:26:40.814Z,100244.95
2018-02-16T18:29:08.400Z,100234.19
2018-02-16T18:31:35.928Z,100234.48
2018-02-16T18:34:03.504Z,100233.44
2018-02-16T18:36:35.983Z,100239.55
2018-02-16T18:39:04.027Z,100244.74
2018-02-16T18:41:31.596Z,100229.63
2018-02-16T18:43:59.179Z,100235.67
2018-02-16T18:46:26.736Z,100228.13
2018-02-16T18:48:54.442Z,100226.98
2018-02-16T18:51:22.443Z,100220.96
2018-02-16T18:53:50.005Z,100227.50
2018-02-16T18:56:17.763Z,100240.30
2018-02-16T18:58:45.351Z,100240.27
2018-02-16T19:01:13.079Z,100231.80
2018-02-16T19:03:40.903Z,100232.11
2018-02-16T19:06:08.483Z,100235.30
2018-02-16T19:08:36.125Z,100241.71
2018-02-16T19:11:03.856Z,100237.39
2018-02-16T19:13:31.410Z,100230.11
2018-02-16T19:16:00.760Z,100230.34
2018-02-16T19:18:28.343Z,100223.77
2018-02-16T19:20:55.868Z,100220.00
2018-02-16T19:23:23.420Z,100222.65
2018-02-16T19:25:50.951Z,100216.91
2018-02-16T19:28:18.522Z,100220.59
2018-02-16T19:30:46.092Z,100208.33
2018-02-16T19:33:13.655Z,100222.09
2018-02-16T19:35:41.381Z,100218.67
2018-02-16T19:38:09.032Z,100215.66
2018-02-16T19:40:37.050Z,100209.99
2018-02-16T19:43:04.635Z,100204.20
2018-02-16T19:45:32.194Z,100216.67
2018-02-16T19:48:00.200Z,100216.23
2018-02-16T19:50:27.770Z,100206.81
2018-02-16T19:52:55.311Z,100216.20
2018-02-16T19:55:22.896Z,100219.01
2018-02-16T19:57:50.434Z,100214.12
2018-02-16T20:00:18.401Z,100215.53
2018-02-16T20:02:46.956Z,100227.31
2018-02-16T20:05:18.575Z,100222.51
2018-02-16T20:07:46.613Z,100222.70
2018-02-16T20:10:14.863Z,100221.34
2018-02-16T20:12:42.968Z,100222.66
2018-02-16T20:15:11.320Z,100182.92
2018-02-16T20:17:38.876Z,100216.11
2018-02-16T20:20:06.466Z,100206.09
2018-02-16T20:22:34.323Z,100209.05
2018-02-16T20:25:10.374Z,100233.89
2018-02-16T20:27:38.254Z,100221.16
2018-02-16T20:30:05.809Z,100219.78
2018-02-16T20:32:33.476Z,100214.17
2018-02-16T20:35:01.238Z,100206.48
2018-02-16T20:37:28.896Z,100213.40
2018-02-16T20:39:56.435Z,100214.91
2018-02-16T20:42:24.015Z,100214.88
2018-02-16T20:44:51.666Z,100212.66
2018-02-16T20:47:19.195Z,100221.07
2018-02-16T20:49:46.774Z,100216.14
2018-02-16T20:52:14.864Z,100205.18
2018-02-16T20:54:42.948Z,100211.34
2018-02-16T20:57:10.807Z,100203.11
2018-02-16T20:59:39.861Z,100205.75
2018-02-16T21:02:07.586Z,100204.95
2018-02-16T21:04:35.119Z,100194.52
2018-02-16T21:07:04.290Z,100199.11
2018-02-16T21:09:32.268Z,100195.75
2018-02-16T21:12:01.917Z,100195.59
2018-02-16T21:14:29.737Z,100196.45
2018-02-16T21:16:57.843Z,100205.27
2018-02-16T21:19:25.450Z,100210.09
2018-02-16T21:21:53.003Z,100202.38
2018-02-16T21:24:20.623Z,100195.06
2018-02-16T21:26:48.180Z,100204.27
2018-02-16T21:29:15.711Z,100200.88
2018-02-16T21:31:43.392Z,100204.75
2018-02-16T21:34:11.886Z,100197.00
2018-02-16T21:36:39.543Z,100208.22
2018-02-16T21:39:07.141Z,100203.92
2018-02-16T21:41:34.670Z,100207.80
2018-02-16T21:44:02.222Z,100208.12
2018-02-16T21:46:29.748Z,100199.02
2018-02-16T21:48:57.329Z,100202.95
2018-02-16T21:51:24.850Z,100189.52
2018-02-16T21:53:59.093Z,100197.45
2018-02-16T21:56:28.079Z,100198.52
2018-02-16T21:58:56.274Z,100178.72
2018-02-16T22:01:24.712Z,100182.67
2018-02-16T22:03:52.415Z,100182.55
2018-02-16T22:06:20.484Z,100186.51
2018-02-16T22:08:48.299Z,100180.13
2018-02-16T22:11:19.046Z,100171.08
2018-02-16T22:13:46.824Z,100168.12
2018-02-16T22:16:14.378Z,100161.56
2018-02-16T22:18:42.295Z,100160.25
2018-02-16T22:21:09.935Z,100155.73
2018-02-16T22:23:37.927Z,100157.80
2018-02-16T22:26:05.534Z,100155.30
2018-02-16T22:28:33.742Z,100154.11
2018-02-16T22:31:01.320Z,100158.59
2018-02-16T22:33:29.088Z,100167.55
2018-02-16T22:35:57.140Z,100176.01
2018-02-16T22:38:24.748Z,100169.45
2018-02-16T22:40:52.298Z,100158.91
2018-02-16T22:43:19.875Z,100163.13
2018-02-16T22:45:47.430Z,100160.91
2018-02-16T22:48:15.024Z,100146.42
2018-02-16T22:50:42.682Z,100143.18
2018-02-16T22:53:10.260Z,100160.32
2018-02-16T22:55:37.811Z,100143.05
2018-02-16T22:58:06.367Z,100152.30
2018-02-16T23:00:33.994Z,100160.83
2018-02-16T23:03:01.519Z,100157.52
2018-02-16T23:05:29.177Z,100169.11
2018-02-16T23:07:56.839Z,100164.37
2018-02-16T23:10:24.403Z,100161.43
2018-02-16T23:12:51.957Z,100159.00
2018-02-16T23:15:19.530Z,100146.94
2018-02-16T23:17:47.063Z,100159.29
2018-02-16T23:20:14.767Z,100145.37
2018-02-16T23:22:42.504Z,100148.67
2018-02-16T23:25:10.165Z,100132.75
2018-02-16T23:27:37.696Z,100130.53
2018-02-16T23:30:05.243Z,100121.09
2018-02-16T23:32:32.948Z,100115.16
2018-02-16T23:35:00.502Z,100109.17
2018-02-16T23:37:28.164Z,100117.66
2018-02-16T23:39:55.848Z,100107.41
2018-02-16T23:42:23.512Z,100103.06
2018-02-16T23:44:51.024Z,100098.83
2018-02-16T23:47:18.608Z,100097.54
2018-02-16T23:49:46.226Z,100101.93
2018-02-16T23:52:13.766Z,100088.52
2018-02-16T23:54:41.435Z,100091.61
2018-02-16T23:57:08.975Z,100083.34
2018-02-16T23:59:36.570Z,100042.97
